Manor, TX (78653)

11:42 AM CDT on August 27, 2016 (GMT -0500)
Shadowglen | | Change Station

Elev 541 ft 30.36 °N, 97.54 °W | Updated 7 minutes ago

Mostly Cloudy
Mostly Cloudy
84.0 °F
Feels Like 91 °F
N
2.0
Wind Variable Wind from NE
Gusts 5.0 mph

Today
High -- | Low -- °F
--% Chance of Precip.
Yesterday
High -- | Low -- °F
Precip. -- in
Pressure 30.05 in
Visibility 10.0 miles
Clouds Few 2500 ft
Mostly Cloudy 3500 ft
Heat Index 91 °F
Dew Point 74 °F
Humidity 73%
Rainfall 0.00 in
Snow Depth Not available.
7:04 AM 7:58 PM
Waning Crescent, 23% visible
METAR KEDC 271615Z AUTO 00000KT 10SM FEW025 BKN035 28/22 A3005 RMK AO2
Pressure 30.05 in
Visibility 10.0 miles
Clouds Few 2500 ft
Mostly Cloudy 3500 ft
Heat Index 91 °F
Dew Point 74 °F
Humidity 73%
Rainfall 0.00 in
Snow Depth Not available.
7:04 AM 7:58 PM
Waning Crescent, 23% visible
METAR KEDC 271615Z AUTO 00000KT 10SM FEW025 BKN035 28/22 A3005 RMK AO2

10-Day Weather Forecast

Almanac

Astronomy

Aug. 27, 2016 Rise Set
Actual Time
Civil Twilight
Nautical Twilight
Astronomical Twilight
Moon
Length of Visible Light
Length of Day
Tomorrow will be .
, % of the Moon is Illuminated

Today's Extremes

State Highs State Lows

Community

WunderPhotos

Upload Photos

1,935,377 photos uploaded!

WunderBlog® & News

Nearby

Air Quality

  Air Quality AQ Index Pollutant
Not available.

Snow Depth

Station Depth Elevation

Earthquake Activity

City Distance Mag. Time & Date
Minimum magnitude displayed is 2.5.

Coastal Water Temperatures

Place Temperature

Stations

Nearby Weather Stations

Station Location Temp. Windchill Dew Point Humidity Wind Precip. Elev Updated Type
                   

Watches & Warnings

There are currently no watches in effect.